Terminal Aerodrome Forecast
Issued by NWS

Home | Current Version | Previous Version | Graphics & Text | Print | Product List | Glossary On
Versions: 1 2 3 4 5 6 7 8 9 10 11 12 13 14 15 16 17 18 19 20 21 22
460
FTUS43 KABR 230959 AAA
TAFPIR
TAF AMD
KPIR 230959Z 2310/2406 04007KT P6SM FEW025
     FM231400 04010KT P6SM VCSH OVC015
     FM231600 05010KT 5SM -SN BR OVC010
     FM231800 06015KT 2SM -SN BR OVC015
     FM232000 04017G24KT 1 1/2SM -SN BLSN BR OVC010
     FM240400 03016KT 3SM -SN BLSN BR OVC020=

USA.gov is the U.S. government's official web portal to all federal, state and local government web resources and services.